createdAt,value
2019-06-20T00:00:31.883Z,289.80
2019-06-20T00:03:03.327Z,279.75
2019-06-20T00:05:34.992Z,283.80
2019-06-20T00:08:06.435Z,279.32
2019-06-20T00:10:38.104Z,279.57
2019-06-20T00:13:09.680Z,284.75
2019-06-20T00:15:41.504Z,272.85
2019-06-20T00:18:13.245Z,280.42
2019-06-20T00:20:46.025Z,283.40
2019-06-20T00:23:17.593Z,279.27
2019-06-20T00:25:49.058Z,268.33
2019-06-20T00:28:20.493Z,275.05
2019-06-20T00:30:52.316Z,272.27
2019-06-20T00:33:23.653Z,274.48
2019-06-20T00:35:55.372Z,271.13
2019-06-20T00:38:26.858Z,269.05
2019-06-20T00:40:58.689Z,262.70
2019-06-20T00:43:29.866Z,260.65
2019-06-20T00:46:01.500Z,256.45
2019-06-20T00:48:33.047Z,266.25
2019-06-20T00:51:04.397Z,267.55
2019-06-20T00:53:35.584Z,266.82
2019-06-20T00:56:07.642Z,270.05
2019-06-20T00:58:39.045Z,265.62
2019-06-20T01:01:10.597Z,269.80
2019-06-20T01:03:41.832Z,263.98
2019-06-20T01:06:13.228Z,264.82
2019-06-20T01:08:44.488Z,257.95
2019-06-20T01:11:15.801Z,264.02
2019-06-20T01:13:47.145Z,264.17
2019-06-20T01:16:18.657Z,260.43
2019-06-20T01:18:50.167Z,259.52
2019-06-20T01:21:21.699Z,257.77
2019-06-20T01:23:53.281Z,261.60
2019-06-20T01:26:25.034Z,259.32
2019-06-20T01:28:57.806Z,261.87
2019-06-20T01:31:29.395Z,253.37
2019-06-20T01:34:00.740Z,255.43
2019-06-20T01:36:32.002Z,252.28
2019-06-20T01:39:03.564Z,252.30
2019-06-20T01:41:35.486Z,252.95
2019-06-20T01:44:06.777Z,253.45
2019-06-20T01:46:38.071Z,248.45
2019-06-20T01:49:09.552Z,247.95
2019-06-20T01:51:40.944Z,251.42
2019-06-20T01:54:12.415Z,257.15
2019-06-20T01:56:43.947Z,252.25
2019-06-20T01:59:15.421Z,255.45
2019-06-20T02:01:47.010Z,248.38
2019-06-20T02:04:18.394Z,253.98
2019-06-20T02:06:50.126Z,245.27
2019-06-20T02:09:21.728Z,250.20
2019-06-20T02:11:53.163Z,247.67
2019-06-20T02:14:24.534Z,256.57
2019-06-20T02:16:56.334Z,253.70
2019-06-20T02:19:27.591Z,251.27
2019-06-20T02:21:59.271Z,254.85
2019-06-20T02:24:30.783Z,252.57
2019-06-20T02:27:02.327Z,247.73
2019-06-20T02:29:33.505Z,255.20
2019-06-20T02:32:04.826Z,251.22
2019-06-20T02:34:36.310Z,254.00
2019-06-20T02:37:07.529Z,249.50
2019-06-20T02:39:39.456Z,247.35
2019-06-20T02:42:11.288Z,253.52
2019-06-20T02:44:43.049Z,255.22
2019-06-20T02:47:14.776Z,253.95
2019-06-20T02:49:46.013Z,260.73
2019-06-20T02:52:17.758Z,263.23
2019-06-20T02:54:49.814Z,249.85
2019-06-20T02:57:21.294Z,255.57
2019-06-20T02:59:52.690Z,248.22
2019-06-20T03:02:24.171Z,251.07
2019-06-20T03:04:55.316Z,259.65
2019-06-20T03:07:26.558Z,248.30
2019-06-20T03:09:58.077Z,236.25
2019-06-20T03:12:29.395Z,243.82
2019-06-20T03:15:01.719Z,238.07
2019-06-20T03:17:33.131Z,234.70
2019-06-20T03:20:04.982Z,231.23
2019-06-20T03:22:36.431Z,235.00
2019-06-20T03:25:07.932Z,238.62
2019-06-20T03:27:39.333Z,239.97
2019-06-20T03:30:11.397Z,237.15
2019-06-20T03:32:42.874Z,236.10
2019-06-20T03:35:14.269Z,236.80
2019-06-20T03:37:45.504Z,238.95
2019-06-20T03:40:16.742Z,250.45
2019-06-20T03:42:47.969Z,234.27
2019-06-20T03:45:19.606Z,245.42
2019-06-20T03:47:51.065Z,241.23
2019-06-20T03:50:22.400Z,250.65
2019-06-20T03:53:03.134Z,246.82
2019-06-20T03:55:34.854Z,240.62
2019-06-20T03:58:06.370Z,237.85
2019-06-20T04:00:37.847Z,243.17
2019-06-20T04:03:09.275Z,244.13
2019-06-20T04:05:40.826Z,241.57
2019-06-20T04:08:13.470Z,246.82
2019-06-20T04:10:44.714Z,251.37
2019-06-20T04:13:16.125Z,243.52
2019-06-20T04:15:47.634Z,241.15
2019-06-20T04:18:19.099Z,246.43
2019-06-20T04:20:50.536Z,243.45
2019-06-20T04:23:22.175Z,246.80
2019-06-20T04:25:53.676Z,239.82
2019-06-20T04:28:24.914Z,249.60
2019-06-20T04:30:56.379Z,238.05
2019-06-20T04:33:27.810Z,237.80
2019-06-20T04:35:59.576Z,244.62
2019-06-20T04:38:30.745Z,248.55
2019-06-20T04:41:02.366Z,246.13
2019-06-20T04:43:33.615Z,251.18
2019-06-20T04:46:28.820Z,244.40
2019-06-20T04:49:00.402Z,242.47
2019-06-20T04:51:31.758Z,244.65
2019-06-20T04:54:02.975Z,248.38
2019-06-20T04:56:34.280Z,254.45
2019-06-20T04:59:05.686Z,260.98
2019-06-20T05:01:36.786Z,260.48
2019-06-20T05:04:08.460Z,261.80
2019-06-20T05:06:41.302Z,261.62
2019-06-20T05:09:12.872Z,271.43
2019-06-20T05:11:44.255Z,272.50
2019-06-20T05:14:15.465Z,282.77
2019-06-20T05:16:47.002Z,279.27
2019-06-20T05:19:18.649Z,287.85
2019-06-20T05:21:49.962Z,281.57
2019-06-20T05:24:21.506Z,291.68
2019-06-20T05:26:52.792Z,291.65
2019-06-20T05:29:24.325Z,306.90
2019-06-20T05:31:55.487Z,322.35
2019-06-20T05:34:27.371Z,341.05
2019-06-20T05:36:58.514Z,364.00
2019-06-20T05:39:29.603Z,383.03
2019-06-20T05:42:00.821Z,387.43
2019-06-20T05:44:32.271Z,393.87
2019-06-20T05:47:12.416Z,412.37
2019-06-20T05:49:37.102Z,429.07
2019-06-20T05:52:08.275Z,427.17
2019-06-20T05:54:39.904Z,437.03
2019-06-20T05:57:10.925Z,448.07
2019-06-20T05:59:42.157Z,468.40
2019-06-20T06:02:13.582Z,501.97
2019-06-20T06:04:44.900Z,511.77
2019-06-20T06:07:16.173Z,532.33
2019-06-20T06:09:47.251Z,530.70
2019-06-20T06:12:18.435Z,523.47
2019-06-20T06:14:49.728Z,513.77
2019-06-20T06:17:21.156Z,528.10
2019-06-20T06:19:52.190Z,519.07
2019-06-20T06:22:23.190Z,524.83
2019-06-20T06:24:54.415Z,514.07
2019-06-20T06:27:25.686Z,518.23
2019-06-20T06:29:57.137Z,516.23
2019-06-20T06:32:39.584Z,511.90
2019-06-20T06:35:01.493Z,530.97
2019-06-20T06:37:32.981Z,553.47
2019-06-20T06:40:05.990Z,563.50
2019-06-20T06:42:37.160Z,581.43
2019-06-20T06:45:09.303Z,600.07
2019-06-20T06:47:40.715Z,568.57
2019-06-20T06:50:13.243Z,593.83
2019-06-20T06:52:44.487Z,581.27
2019-06-20T06:55:16.784Z,593.03
2019-06-20T06:57:48.058Z,583.53
2019-06-20T07:00:19.785Z,576.77
2019-06-20T07:02:51.381Z,563.60
2019-06-20T07:05:23.234Z,564.97
2019-06-20T07:07:54.674Z,569.93
2019-06-20T07:10:26.204Z,594.57
2019-06-20T07:12:57.162Z,611.07
2019-06-20T07:15:28.897Z,628.63
2019-06-20T07:18:00.337Z,652.83
2019-06-20T07:20:32.797Z,659.07
2019-06-20T07:23:03.990Z,663.57
2019-06-20T07:25:35.021Z,663.67
2019-06-20T07:28:06.486Z,677.50
2019-06-20T07:30:38.171Z,683.60
2019-06-20T07:33:09.277Z,692.73
2019-06-20T07:35:41.967Z,680.57
2019-06-20T07:38:13.351Z,682.60
2019-06-20T07:40:44.528Z,681.93
2019-06-20T07:43:15.518Z,712.37
2019-06-20T07:46:01.565Z,739.53
2019-06-20T07:48:19.910Z,743.23
2019-06-20T07:50:51.406Z,743.00
2019-06-20T07:53:22.835Z,735.23
2019-06-20T07:55:54.386Z,751.07
2019-06-20T07:58:25.660Z,748.97
2019-06-20T08:00:56.897Z,744.90
2019-06-20T08:03:28.726Z,746.63
2019-06-20T08:06:00.106Z,745.63
2019-06-20T08:08:32.169Z,736.77
2019-06-20T08:11:03.449Z,748.13
2019-06-20T08:13:34.707Z,738.47
2019-06-20T08:16:05.999Z,729.90
2019-06-20T08:18:37.452Z,724.73
2019-06-20T08:21:08.645Z,721.80
2019-06-20T08:23:39.688Z,728.03
2019-06-20T08:26:10.945Z,741.27
2019-06-20T08:28:42.165Z,758.07
2019-06-20T08:31:13.292Z,746.00
2019-06-20T08:33:44.559Z,753.23
2019-06-20T08:36:15.740Z,757.77
2019-06-20T08:38:46.922Z,774.50
2019-06-20T08:41:18.017Z,805.67
2019-06-20T08:43:48.954Z,814.03
2019-06-20T08:46:19.987Z,826.50
2019-06-20T08:48:51.414Z,829.77
2019-06-20T08:51:22.489Z,803.90
2019-06-20T08:53:55.734Z,807.40
2019-06-20T08:56:26.380Z,813.17
2019-06-20T08:58:58.477Z,823.93
2019-06-20T09:01:29.908Z,837.27
2019-06-20T09:06:32.402Z,834.50
2019-06-20T09:09:04.539Z,823.37
2019-06-20T09:11:36.231Z,822.77
2019-06-20T09:14:07.337Z,823.70
2019-06-20T09:16:38.478Z,834.10
2019-06-20T09:19:09.637Z,834.63
2019-06-20T09:21:41.138Z,848.03
2019-06-20T09:24:12.041Z,864.60
2019-06-20T09:26:43.610Z,849.17
2019-06-20T09:29:15.127Z,842.40
2019-06-20T09:31:46.554Z,867.37
2019-06-20T09:34:18.375Z,882.53
2019-06-20T09:36:51.942Z,871.27
2019-06-20T09:39:23.079Z,874.97
2019-06-20T09:41:54.418Z,858.87
2019-06-20T09:44:25.590Z,859.33
2019-06-20T09:46:58.204Z,859.30
2019-06-20T09:49:29.748Z,876.27
2019-06-20T09:52:00.980Z,889.40
2019-06-20T09:54:32.218Z,885.50
2019-06-20T09:57:03.527Z,895.93
2019-06-20T09:59:34.772Z,896.07
2019-06-20T10:02:06.421Z,884.20
2019-06-20T10:04:37.537Z,873.60
2019-06-20T10:07:09.059Z,868.40
2019-06-20T10:09:40.459Z,879.20
2019-06-20T10:12:12.560Z,882.83
2019-06-20T10:14:45.469Z,899.83
2019-06-20T10:17:22.415Z,913.13
2019-06-20T10:19:54.103Z,922.63
2019-06-20T10:22:25.662Z,922.03
2019-06-20T10:24:58.059Z,911.03
2019-06-20T10:27:29.375Z,907.97
2019-06-20T10:30:13.373Z,912.37
2019-06-20T10:32:34.908Z,902.37
2019-06-20T10:35:06.691Z,899.50
2019-06-20T10:37:38.952Z,887.47
2019-06-20T10:40:10.683Z,878.37
2019-06-20T10:42:41.912Z,888.77
2019-06-20T10:45:13.746Z,898.10
2019-06-20T10:47:45.745Z,914.43
2019-06-20T10:50:19.684Z,917.63
2019-06-20T10:52:51.852Z,919.70
2019-06-20T10:55:24.323Z,922.00
2019-06-20T10:57:55.647Z,904.40
2019-06-20T11:00:31.564Z,888.10
2019-06-20T11:03:00.643Z,893.20
2019-06-20T11:05:31.836Z,922.03
2019-06-20T11:08:03.095Z,915.80
2019-06-20T11:10:34.700Z,891.40
2019-06-20T11:13:06.244Z,892.37
2019-06-20T11:15:38.951Z,890.43
2019-06-20T11:18:10.617Z,893.77
2019-06-20T11:20:42.748Z,898.97
2019-06-20T11:23:14.106Z,894.97
2019-06-20T11:25:46.652Z,896.37
2019-06-20T11:28:17.975Z,891.40
2019-06-20T11:30:59.613Z,877.17
2019-06-20T11:33:23.669Z,863.27
2019-06-20T11:35:54.949Z,853.67
2019-06-20T11:38:26.598Z,861.60
2019-06-20T11:40:58.004Z,854.80
2019-06-20T11:43:29.498Z,856.27
2019-06-20T11:46:00.712Z,855.27
2019-06-20T11:48:32.087Z,846.97
2019-06-20T11:51:03.228Z,854.00
2019-06-20T11:53:35.305Z,841.40
2019-06-20T11:56:07.434Z,830.30
2019-06-20T11:58:39.079Z,812.53
2019-06-20T12:01:10.959Z,809.30
2019-06-20T12:03:42.545Z,776.23
2019-06-20T12:06:13.831Z,767.97
2019-06-20T12:08:46.775Z,750.57
2019-06-20T12:11:18.100Z,728.40
2019-06-20T12:13:49.722Z,697.20
2019-06-20T12:16:20.614Z,685.27
2019-06-20T12:18:51.840Z,656.03
2019-06-20T12:21:23.117Z,643.93
2019-06-20T12:23:54.281Z,606.13
2019-06-20T12:26:25.311Z,580.83
2019-06-20T12:28:56.727Z,541.40
2019-06-20T12:31:27.951Z,510.50
2019-06-20T12:33:58.857Z,501.27
2019-06-20T12:36:30.202Z,480.43
2019-06-20T12:39:01.413Z,462.50
2019-06-20T12:41:34.113Z,449.40
2019-06-20T12:44:05.269Z,436.03
2019-06-20T12:46:36.345Z,424.60
2019-06-20T12:49:07.440Z,420.77
2019-06-20T12:51:39.098Z,420.73
2019-06-20T12:54:11.398Z,410.67
2019-06-20T12:56:43.937Z,416.57
2019-06-20T12:59:15.451Z,419.20
2019-06-20T13:01:48.863Z,420.17
2019-06-20T13:04:19.478Z,429.00
2019-06-20T13:06:51.031Z,422.87
2019-06-20T13:09:22.716Z,423.33
2019-06-20T13:11:54.356Z,415.87
2019-06-20T13:14:25.700Z,409.90
2019-06-20T13:16:57.268Z,403.23
2019-06-20T13:19:28.962Z,398.90
2019-06-20T13:22:00.171Z,385.30
2019-06-20T13:24:31.732Z,391.97
2019-06-20T13:27:03.056Z,382.97
2019-06-20T13:29:34.355Z,383.33
2019-06-20T13:32:05.639Z,372.13
2019-06-20T13:34:38.027Z,368.73
2019-06-20T13:37:09.752Z,369.97
2019-06-20T13:39:41.705Z,357.47
2019-06-20T13:42:14.439Z,345.50
2019-06-20T13:44:45.353Z,328.57
2019-06-20T13:47:16.577Z,337.12
2019-06-20T13:49:50.101Z,321.62
2019-06-20T13:52:21.455Z,318.45
2019-06-20T13:54:53.015Z,317.13
2019-06-20T13:57:24.227Z,323.13
2019-06-20T13:59:55.589Z,324.87
2019-06-20T14:02:26.646Z,322.83
2019-06-20T14:04:57.845Z,328.67
2019-06-20T14:07:29.409Z,338.07
2019-06-20T14:10:00.444Z,344.53
2019-06-20T14:12:31.780Z,352.57
2019-06-20T14:15:03.143Z,352.50
2019-06-20T14:17:34.565Z,366.30
2019-06-20T14:20:08.284Z,378.70
2019-06-20T14:22:39.069Z,380.40
2019-06-20T14:25:10.803Z,393.57
2019-06-20T14:27:42.342Z,399.00
2019-06-20T14:30:14.779Z,408.37
2019-06-20T14:32:47.227Z,407.03
2019-06-20T14:35:18.761Z,412.87
2019-06-20T14:37:51.582Z,421.57
2019-06-20T14:40:23.327Z,439.87
2019-06-20T14:42:54.849Z,439.90
2019-06-20T14:45:25.997Z,453.43
2019-06-20T14:47:57.437Z,452.13
2019-06-20T14:50:28.826Z,470.87
2019-06-20T14:53:00.002Z,470.23
2019-06-20T14:55:31.116Z,473.30
2019-06-20T14:58:01.961Z,482.10
2019-06-20T15:00:33.451Z,489.90
2019-06-20T15:03:04.992Z,501.87
2019-06-20T15:05:36.072Z,503.90
2019-06-20T15:08:06.949Z,500.90
2019-06-20T15:10:38.331Z,519.57
2019-06-20T15:13:09.664Z,526.27
2019-06-20T15:15:40.837Z,525.20
2019-06-20T15:18:12.016Z,534.50
2019-06-20T15:20:42.969Z,525.87
2019-06-20T15:23:14.267Z,532.87
2019-06-20T15:25:46.977Z,518.93
2019-06-20T15:28:18.641Z,544.93
2019-06-20T15:30:50.837Z,543.03
2019-06-20T15:36:49.779Z,527.17
2019-06-20T15:39:21.532Z,544.47
2019-06-20T15:41:54.084Z,542.47
2019-06-20T15:44:25.584Z,545.90
2019-06-20T15:46:56.463Z,560.60
2019-06-20T15:49:27.850Z,562.27
2019-06-20T15:51:59.321Z,563.37
2019-06-20T15:54:30.633Z,563.90
2019-06-20T15:57:01.858Z,568.77
2019-06-20T15:59:32.770Z,563.27
2019-06-20T16:02:07.192Z,575.87
2019-06-20T16:04:38.786Z,558.83
2019-06-20T16:07:10.516Z,560.17
2019-06-20T16:09:41.760Z,557.97
2019-06-20T16:12:13.351Z,554.67
2019-06-20T16:14:46.435Z,548.00
2019-06-20T16:17:17.599Z,546.70
2019-06-20T16:19:49.326Z,529.33
2019-06-20T16:22:20.657Z,529.30
2019-06-20T16:24:51.988Z,515.93
2019-06-20T16:27:25.043Z,512.90
2019-06-20T16:29:56.177Z,502.77
2019-06-20T16:32:29.600Z,494.97
2019-06-20T16:35:00.674Z,496.03
2019-06-20T16:37:33.671Z,499.10
2019-06-20T16:40:05.619Z,497.27
2019-06-20T16:42:37.215Z,493.13
2019-06-20T16:45:10.670Z,490.93
2019-06-20T16:47:41.855Z,492.73
2019-06-20T16:50:13.292Z,491.50
2019-06-20T16:52:45.471Z,486.10
2019-06-20T16:55:16.627Z,491.70
2019-06-20T16:57:48.141Z,489.33
2019-06-20T17:00:21.206Z,487.77
2019-06-20T17:02:52.692Z,477.57
2019-06-20T17:05:24.056Z,483.37
2019-06-20T17:07:55.428Z,475.00
2019-06-20T17:10:26.816Z,473.07
2019-06-20T17:12:59.937Z,477.90
2019-06-20T17:15:31.359Z,484.77
2019-06-20T17:18:02.628Z,475.20
2019-06-20T17:20:33.557Z,472.00
2019-06-20T17:23:04.995Z,473.83
2019-06-20T17:25:36.157Z,479.03
2019-06-20T17:28:07.343Z,471.03
2019-06-20T17:30:38.494Z,463.30
2019-06-20T17:33:09.827Z,467.07
2019-06-20T17:35:41.191Z,467.57
2019-06-20T17:38:12.682Z,473.90
2019-06-20T17:40:44.303Z,462.33
2019-06-20T17:43:15.497Z,469.17
2019-06-20T17:45:46.839Z,459.33
2019-06-20T17:48:18.051Z,472.80
2019-06-20T17:50:49.191Z,468.43
2019-06-20T17:53:20.499Z,466.20
2019-06-20T17:55:51.768Z,459.17
2019-06-20T17:58:22.875Z,457.27
2019-06-20T18:00:54.391Z,451.87
2019-06-20T18:03:25.878Z,447.03
2019-06-20T18:05:57.167Z,449.43
2019-06-20T18:08:28.435Z,454.03
2019-06-20T18:10:59.697Z,449.87
2019-06-20T18:13:32.351Z,450.07
2019-06-20T18:16:03.618Z,450.30
2019-06-20T18:18:35.010Z,446.43
2019-06-20T18:21:06.306Z,439.97
2019-06-20T18:23:37.608Z,441.60
2019-06-20T18:26:08.704Z,446.07
2019-06-20T18:28:40.008Z,436.80
2019-06-20T18:31:11.341Z,434.17
2019-06-20T18:33:42.763Z,432.83
2019-06-20T18:36:13.965Z,435.03
2019-06-20T18:38:45.581Z,427.50
2019-06-20T18:41:16.725Z,415.20
2019-06-20T18:43:48.017Z,421.47
2019-06-20T18:46:19.198Z,423.77
2019-06-20T18:48:50.895Z,430.33
2019-06-20T18:51:22.997Z,429.67
2019-06-20T18:53:55.374Z,427.27
2019-06-20T18:56:26.825Z,416.67
2019-06-20T18:58:58.258Z,415.70
2019-06-20T19:01:29.290Z,415.83
2019-06-20T19:04:00.486Z,420.00
2019-06-20T19:06:35.867Z,406.63
2019-06-20T19:09:07.155Z,405.23
2019-06-20T19:11:39.253Z,414.83
2019-06-20T19:14:12.752Z,402.40
2019-06-20T19:16:43.494Z,388.73
2019-06-20T19:19:14.413Z,395.43
2019-06-20T19:21:45.773Z,383.47
2019-06-20T19:24:16.811Z,385.80
2019-06-20T19:26:48.010Z,374.87
2019-06-20T19:29:19.137Z,380.70
2019-06-20T19:31:50.343Z,378.67
2019-06-20T19:34:23.178Z,379.67
2019-06-20T19:36:54.006Z,384.80
2019-06-20T19:39:26.668Z,382.13
2019-06-20T19:41:57.619Z,372.37
2019-06-20T19:44:28.653Z,376.97
2019-06-20T19:46:59.823Z,379.67
2019-06-20T19:49:31.169Z,376.33
2019-06-20T19:52:02.127Z,376.70
2019-06-20T19:54:33.389Z,371.73
2019-06-20T19:57:04.568Z,377.77
2019-06-20T19:59:35.519Z,377.57
2019-06-20T20:02:06.688Z,375.50
2019-06-20T20:04:37.740Z,366.27
2019-06-20T20:07:08.803Z,352.17
2019-06-20T20:09:39.767Z,344.43
2019-06-20T20:12:10.731Z,340.33
2019-06-20T20:14:41.748Z,335.10
2019-06-20T20:17:12.894Z,332.57
2019-06-20T20:19:43.716Z,327.33
2019-06-20T20:22:14.897Z,330.07
2019-06-20T20:24:46.156Z,327.93
2019-06-20T20:27:17.422Z,330.60
2019-06-20T20:29:48.438Z,321.40
2019-06-20T20:32:19.477Z,326.67
2019-06-20T20:34:50.588Z,326.77
2019-06-20T20:37:21.741Z,327.80
2019-06-20T20:39:52.618Z,327.23
2019-06-20T20:42:23.828Z,332.67
2019-06-20T20:44:55.193Z,326.30
2019-06-20T20:47:28.591Z,325.13
2019-06-20T20:50:00.794Z,317.83
2019-06-20T20:52:31.805Z,329.87
2019-06-20T20:55:02.804Z,326.97
2019-06-20T20:57:33.738Z,317.03
2019-06-20T21:00:05.853Z,319.65
2019-06-20T21:02:38.209Z,318.63
2019-06-20T21:05:09.220Z,318.50
2019-06-20T21:07:40.476Z,316.33
2019-06-20T21:10:12.388Z,309.50
2019-06-20T21:12:43.944Z,310.20
2019-06-20T21:15:15.463Z,312.93
2019-06-20T21:17:46.905Z,303.35
2019-06-20T21:20:18.296Z,305.00
2019-06-20T21:22:49.602Z,299.02
2019-06-20T21:25:21.445Z,311.70
2019-06-20T21:27:52.582Z,305.87
2019-06-20T21:30:24.027Z,307.10
2019-06-20T21:32:55.292Z,309.43
2019-06-20T21:35:26.523Z,302.35
2019-06-20T21:37:58.061Z,294.50
2019-06-20T21:40:29.253Z,294.77
2019-06-20T21:43:00.789Z,297.23
2019-06-20T21:45:32.500Z,300.62
2019-06-20T21:48:03.503Z,298.73
2019-06-20T21:50:34.821Z,304.82
2019-06-20T21:53:05.914Z,310.00
2019-06-20T21:55:37.430Z,305.67
2019-06-20T21:58:08.291Z,309.17
2019-06-20T22:00:43.917Z,302.23
2019-06-20T22:03:16.600Z,308.20
2019-06-20T22:05:47.898Z,304.05
2019-06-20T22:08:19.451Z,350.77
2019-06-20T22:10:50.912Z,312.57
2019-06-20T22:13:21.863Z,305.00
2019-06-20T22:15:53.096Z,300.90
2019-06-20T22:18:24.004Z,297.80
2019-06-20T22:20:56.287Z,299.15
2019-06-20T22:23:28.386Z,302.30
2019-06-20T22:25:59.728Z,303.85
2019-06-20T22:28:31.210Z,294.57
2019-06-20T22:31:02.814Z,296.90
2019-06-20T22:33:34.198Z,291.40
2019-06-20T22:36:05.652Z,290.23
2019-06-20T22:38:37.142Z,285.90
2019-06-20T22:41:10.400Z,287.70
2019-06-20T22:43:41.756Z,297.93
2019-06-20T22:46:13.065Z,299.30
2019-06-20T22:48:44.569Z,295.73
2019-06-20T22:51:16.098Z,299.98
2019-06-20T22:53:47.551Z,294.77
2019-06-20T22:56:18.811Z,298.27
2019-06-20T22:58:50.161Z,287.57
2019-06-20T23:01:21.807Z,292.37
2019-06-20T23:03:53.023Z,289.90
2019-06-20T23:06:24.462Z,289.35
2019-06-20T23:08:55.893Z,278.67
2019-06-20T23:11:27.285Z,280.60
2019-06-20T23:13:59.684Z,277.52
2019-06-20T23:16:31.266Z,278.10
2019-06-20T23:19:02.920Z,275.87
2019-06-20T23:21:34.520Z,277.18
2019-06-20T23:24:06.332Z,273.57
2019-06-20T23:26:38.158Z,272.93
2019-06-20T23:29:24.863Z,274.73
2019-06-20T23:31:57.176Z,264.23
2019-06-20T23:34:28.406Z,266.80
2019-06-20T23:37:12.322Z,268.93
2019-06-20T23:39:33.452Z,266.52
2019-06-20T23:42:04.815Z,269.95
2019-06-20T23:44:36.445Z,264.50
2019-06-20T23:47:08.156Z,270.60
2019-06-20T23:49:39.367Z,267.02
2019-06-20T23:52:15.218Z,269.30
2019-06-20T23:54:46.752Z,263.55
2019-06-20T23:57:19.299Z,269.30
2019-06-20T23:59:50.646Z,266.50
